sensor_id;sensor_type;location;lat;lon;timestamp;temperature;humidity
5494;DHT22;2769;49.864;8.656;2022-09-09T00:00:20;20.90;99.90
5494;DHT22;2769;49.864;8.656;2022-09-09T00:02:57;20.90;99.90
5494;DHT22;2769;49.864;8.656;2022-09-09T00:05:32;21.00;99.90
5494;DHT22;2769;49.864;8.656;2022-09-09T00:08:03;21.00;99.90
5494;DHT22;2769;49.864;8.656;2022-09-09T00:10:37;21.10;99.90
5494;DHT22;2769;49.864;8.656;2022-09-09T00:13:15;21.00;99.90
5494;DHT22;2769;49.864;8.656;2022-09-09T00:15:51;20.90;99.90
5494;DHT22;2769;49.864;8.656;2022-09-09T00:18:29;21.00;99.90
5494;DHT22;2769;49.864;8.656;2022-09-09T00:21:05;20.80;99.90
5494;DHT22;2769;49.864;8.656;2022-09-09T00:23:37;21.00;99.90
5494;DHT22;2769;49.864;8.656;2022-09-09T00:26:11;21.20;99.90
5494;DHT22;2769;49.864;8.656;2022-09-09T00:28:45;21.20;99.90
5494;DHT22;2769;49.864;8.656;2022-09-09T00:31:23;21.30;99.90
5494;DHT22;2769;49.864;8.656;2022-09-09T00:33:54;21.30;99.90
5494;DHT22;2769;49.864;8.656;2022-09-09T00:36:25;21.30;99.90
5494;DHT22;2769;49.864;8.656;2022-09-09T00:38:58;21.40;99.90
5494;DHT22;2769;49.864;8.656;2022-09-09T00:41:36;21.40;99.90
5494;DHT22;2769;49.864;8.656;2022-09-09T00:44:21;21.50;99.90
5494;DHT22;2769;49.864;8.656;2022-09-09T00:47:12;21.50;99.90
5494;DHT22;2769;49.864;8.656;2022-09-09T00:49:51;21.30;99.90
5494;DHT22;2769;49.864;8.656;2022-09-09T00:52:34;21.00;99.90
5494;DHT22;2769;49.864;8.656;2022-09-09T00:55:10;21.20;99.90
5494;DHT22;2769;49.864;8.656;2022-09-09T00:57:43;21.10;99.90
5494;DHT22;2769;49.864;8.656;2022-09-09T01:00:21;21.20;99.90
5494;DHT22;2769;49.864;8.656;2022-09-09T01:02:59;21.10;99.90
5494;DHT22;2769;49.864;8.656;2022-09-09T01:05:35;21.30;99.90
5494;DHT22;2769;49.864;8.656;2022-09-09T01:08:11;21.20;99.90
5494;DHT22;2769;49.864;8.656;2022-09-09T01:10:49;20.90;99.90
5494;DHT22;2769;49.864;8.656;2022-09-09T01:13:22;21.00;99.90
5494;DHT22;2769;49.864;8.656;2022-09-09T01:15:51;20.90;99.90
5494;DHT22;2769;49.864;8.656;2022-09-09T01:18:29;21.10;99.90
5494;DHT22;2769;49.864;8.656;2022-09-09T01:21:06;21.20;99.90
5494;DHT22;2769;49.864;8.656;2022-09-09T01:24:01;21.40;99.90
5494;DHT22;2769;49.864;8.656;2022-09-09T01:26:35;21.30;99.90
5494;DHT22;2769;49.864;8.656;2022-09-09T01:29:07;21.40;99.90
5494;DHT22;2769;49.864;8.656;2022-09-09T01:31:37;21.30;99.90
5494;DHT22;2769;49.864;8.656;2022-09-09T01:34:11;21.20;99.90
5494;DHT22;2769;49.864;8.656;2022-09-09T01:36:43;21.20;99.90
5494;DHT22;2769;49.864;8.656;2022-09-09T01:39:12;21.30;99.90
5494;DHT22;2769;49.864;8.656;2022-09-09T01:41:42;21.40;99.90
5494;DHT22;2769;49.864;8.656;2022-09-09T01:44:11;21.20;99.90
5494;DHT22;2769;49.864;8.656;2022-09-09T01:46:39;21.10;99.90
5494;DHT22;2769;49.864;8.656;2022-09-09T01:49:08;21.10;99.90
5494;DHT22;2769;49.864;8.656;2022-09-09T01:51:38;20.90;99.90
5494;DHT22;2769;49.864;8.656;2022-09-09T01:54:08;20.80;99.90
5494;DHT22;2769;49.864;8.656;2022-09-09T01:56:46;20.70;99.90
5494;DHT22;2769;49.864;8.656;2022-09-09T01:59:31;20.80;99.90
5494;DHT22;2769;49.864;8.656;2022-09-09T02:02:09;20.80;99.90
5494;DHT22;2769;49.864;8.656;2022-09-09T02:04:41;20.90;99.90
5494;DHT22;2769;49.864;8.656;2022-09-09T02:07:30;20.80;99.90
5494;DHT22;2769;49.864;8.656;2022-09-09T02:10:08;20.50;99.90
5494;DHT22;2769;49.864;8.656;2022-09-09T02:12:42;20.50;99.90
5494;DHT22;2769;49.864;8.656;2022-09-09T02:15:17;20.60;99.90
5494;DHT22;2769;49.864;8.656;2022-09-09T02:17:46;20.70;99.90
5494;DHT22;2769;49.864;8.656;2022-09-09T02:20:19;20.70;99.90
5494;DHT22;2769;49.864;8.656;2022-09-09T02:22:49;20.80;99.90
5494;DHT22;2769;49.864;8.656;2022-09-09T02:25:22;20.80;99.90
5494;DHT22;2769;49.864;8.656;2022-09-09T02:27:53;20.70;99.90
5494;DHT22;2769;49.864;8.656;2022-09-09T02:30:21;20.50;99.90
5494;DHT22;2769;49.864;8.656;2022-09-09T02:32:51;20.60;99.90
5494;DHT22;2769;49.864;8.656;2022-09-09T02:35:24;20.60;99.90
5494;DHT22;2769;49.864;8.656;2022-09-09T02:37:54;20.60;99.90
5494;DHT22;2769;49.864;8.656;2022-09-09T02:40:25;20.60;99.90
5494;DHT22;2769;49.864;8.656;2022-09-09T02:42:55;20.80;99.90
5494;DHT22;2769;49.864;8.656;2022-09-09T02:45:27;20.70;99.90
5494;DHT22;2769;49.864;8.656;2022-09-09T02:48:03;20.70;99.90
5494;DHT22;2769;49.864;8.656;2022-09-09T02:50:35;20.60;99.90
5494;DHT22;2769;49.864;8.656;2022-09-09T02:53:09;20.50;99.90
5494;DHT22;2769;49.864;8.656;2022-09-09T02:55:41;20.60;99.90
5494;DHT22;2769;49.864;8.656;2022-09-09T02:58:15;20.60;99.90
5494;DHT22;2769;49.864;8.656;2022-09-09T03:00:46;20.70;99.90
5494;DHT22;2769;49.864;8.656;2022-09-09T03:03:18;20.50;99.90
5494;DHT22;2769;49.864;8.656;2022-09-09T03:05:48;20.50;99.90
5494;DHT22;2769;49.864;8.656;2022-09-09T03:08:17;20.50;99.90
5494;DHT22;2769;49.864;8.656;2022-09-09T03:10:45;20.70;99.90
5494;DHT22;2769;49.864;8.656;2022-09-09T03:13:14;20.70;99.90
5494;DHT22;2769;49.864;8.656;2022-09-09T03:15:42;20.60;99.90
5494;DHT22;2769;49.864;8.656;2022-09-09T03:18:10;20.60;99.90
5494;DHT22;2769;49.864;8.656;2022-09-09T03:20:38;20.70;99.90
5494;DHT22;2769;49.864;8.656;2022-09-09T03:23:08;20.50;99.90
5494;DHT22;2769;49.864;8.656;2022-09-09T03:25:46;20.40;99.90
5494;DHT22;2769;49.864;8.656;2022-09-09T03:28:16;20.40;99.90
5494;DHT22;2769;49.864;8.656;2022-09-09T03:30:44;20.30;99.90
5494;DHT22;2769;49.864;8.656;2022-09-09T03:33:12;20.40;99.90
5494;DHT22;2769;49.864;8.656;2022-09-09T03:35:45;20.30;99.90
5494;DHT22;2769;49.864;8.656;2022-09-09T03:38:15;20.40;99.90
5494;DHT22;2769;49.864;8.656;2022-09-09T03:40:49;20.20;99.90
5494;DHT22;2769;49.864;8.656;2022-09-09T03:43:19;20.40;99.90
5494;DHT22;2769;49.864;8.656;2022-09-09T03:45:48;20.30;99.90
5494;DHT22;2769;49.864;8.656;2022-09-09T03:48:16;20.50;99.90
5494;DHT22;2769;49.864;8.656;2022-09-09T03:50:45;20.50;99.90
5494;DHT22;2769;49.864;8.656;2022-09-09T03:53:14;20.50;99.90
5494;DHT22;2769;49.864;8.656;2022-09-09T03:55:44;20.60;99.90
5494;DHT22;2769;49.864;8.656;2022-09-09T03:58:12;20.70;99.90
5494;DHT22;2769;49.864;8.656;2022-09-09T04:00:42;20.60;99.90
5494;DHT22;2769;49.864;8.656;2022-09-09T04:03:12;20.50;99.90
5494;DHT22;2769;49.864;8.656;2022-09-09T04:05:40;20.30;99.90
5494;DHT22;2769;49.864;8.656;2022-09-09T04:08:09;20.30;99.90
5494;DHT22;2769;49.864;8.656;2022-09-09T04:10:38;20.50;99.90
5494;DHT22;2769;49.864;8.656;2022-09-09T04:13:06;20.30;99.90
5494;DHT22;2769;49.864;8.656;2022-09-09T04:15:34;20.40;99.90
5494;DHT22;2769;49.864;8.656;2022-09-09T04:18:04;20.40;99.90
5494;DHT22;2769;49.864;8.656;2022-09-09T04:20:33;20.50;99.90
5494;DHT22;2769;49.864;8.656;2022-09-09T04:23:01;20.30;99.90
5494;DHT22;2769;49.864;8.656;2022-09-09T04:25:29;20.10;99.90
5494;DHT22;2769;49.864;8.656;2022-09-09T04:27:57;20.20;99.90
5494;DHT22;2769;49.864;8.656;2022-09-09T04:30:26;20.40;99.90
5494;DHT22;2769;49.864;8.656;2022-09-09T04:32:54;20.50;99.90
5494;DHT22;2769;49.864;8.656;2022-09-09T04:35:23;20.50;99.90
5494;DHT22;2769;49.864;8.656;2022-09-09T04:37:51;20.60;99.90
5494;DHT22;2769;49.864;8.656;2022-09-09T04:40:19;20.60;99.90
5494;DHT22;2769;49.864;8.656;2022-09-09T04:42:48;20.40;99.90
5494;DHT22;2769;49.864;8.656;2022-09-09T04:45:17;20.50;99.90
5494;DHT22;2769;49.864;8.656;2022-09-09T04:47:45;20.40;99.90
5494;DHT22;2769;49.864;8.656;2022-09-09T04:50:13;20.30;99.90
5494;DHT22;2769;49.864;8.656;2022-09-09T04:52:42;20.30;99.90
5494;DHT22;2769;49.864;8.656;2022-09-09T04:55:10;20.30;99.90
5494;DHT22;2769;49.864;8.656;2022-09-09T04:57:39;20.30;99.90
5494;DHT22;2769;49.864;8.656;2022-09-09T05:00:09;20.30;99.90
5494;DHT22;2769;49.864;8.656;2022-09-09T05:02:38;20.30;99.90
5494;DHT22;2769;49.864;8.656;2022-09-09T05:05:06;20.20;99.90
5494;DHT22;2769;49.864;8.656;2022-09-09T05:07:34;20.00;99.90
5494;DHT22;2769;49.864;8.656;2022-09-09T05:10:05;19.90;99.90
5494;DHT22;2769;49.864;8.656;2022-09-09T05:12:34;20.10;99.90
5494;DHT22;2769;49.864;8.656;2022-09-09T05:15:02;20.00;99.90
5494;DHT22;2769;49.864;8.656;2022-09-09T05:17:30;19.80;99.90
5494;DHT22;2769;49.864;8.656;2022-09-09T05:20:00;19.70;99.90
5494;DHT22;2769;49.864;8.656;2022-09-09T05:22:35;19.80;99.90
5494;DHT22;2769;49.864;8.656;2022-09-09T05:25:05;20.00;99.90
5494;DHT22;2769;49.864;8.656;2022-09-09T05:27:34;19.30;99.90
5494;DHT22;2769;49.864;8.656;2022-09-09T05:30:03;19.40;99.90
5494;DHT22;2769;49.864;8.656;2022-09-09T05:32:31;19.60;99.90
5494;DHT22;2769;49.864;8.656;2022-09-09T05:35:00;19.70;99.90
5494;DHT22;2769;49.864;8.656;2022-09-09T05:37:28;20.00;99.90
5494;DHT22;2769;49.864;8.656;2022-09-09T05:39:57;20.00;99.90
5494;DHT22;2769;49.864;8.656;2022-09-09T05:42:29;20.00;99.90
5494;DHT22;2769;49.864;8.656;2022-09-09T05:44:58;19.90;99.90
5494;DHT22;2769;49.864;8.656;2022-09-09T05:47:26;19.60;99.90
5494;DHT22;2769;49.864;8.656;2022-09-09T05:49:55;20.40;99.90
5494;DHT22;2769;49.864;8.656;2022-09-09T05:52:23;19.80;99.90
5494;DHT22;2769;49.864;8.656;2022-09-09T05:54:52;19.50;99.90
5494;DHT22;2769;49.864;8.656;2022-09-09T05:57:21;19.50;99.90
5494;DHT22;2769;49.864;8.656;2022-09-09T05:59:51;19.50;99.90
5494;DHT22;2769;49.864;8.656;2022-09-09T06:02:20;19.40;99.90
5494;DHT22;2769;49.864;8.656;2022-09-09T06:04:48;19.50;99.90
5494;DHT22;2769;49.864;8.656;2022-09-09T06:07:16;19.70;99.90
5494;DHT22;2769;49.864;8.656;2022-09-09T06:09:44;19.60;99.90
5494;DHT22;2769;49.864;8.656;2022-09-09T06:12:12;19.90;99.90
5494;DHT22;2769;49.864;8.656;2022-09-09T06:14:40;20.00;99.90
5494;DHT22;2769;49.864;8.656;2022-09-09T06:17:13;20.20;99.90
5494;DHT22;2769;49.864;8.656;2022-09-09T06:19:42;20.50;99.90
5494;DHT22;2769;49.864;8.656;2022-09-09T06:22:10;20.30;99.90
5494;DHT22;2769;49.864;8.656;2022-09-09T06:24:39;20.20;99.90
5494;DHT22;2769;49.864;8.656;2022-09-09T06:27:07;20.10;99.90
5494;DHT22;2769;49.864;8.656;2022-09-09T06:29:35;20.10;99.90
5494;DHT22;2769;49.864;8.656;2022-09-09T06:32:03;20.30;99.90
5494;DHT22;2769;49.864;8.656;2022-09-09T06:34:33;20.30;99.90
5494;DHT22;2769;49.864;8.656;2022-09-09T06:37:02;20.30;99.90
5494;DHT22;2769;49.864;8.656;2022-09-09T06:39:31;20.30;99.90
5494;DHT22;2769;49.864;8.656;2022-09-09T06:41:59;20.20;99.90
5494;DHT22;2769;49.864;8.656;2022-09-09T06:44:27;20.00;99.90
5494;DHT22;2769;49.864;8.656;2022-09-09T06:47:01;19.90;99.90
5494;DHT22;2769;49.864;8.656;2022-09-09T06:49:30;20.40;99.90
5494;DHT22;2769;49.864;8.656;2022-09-09T06:51:59;20.20;99.90
5494;DHT22;2769;49.864;8.656;2022-09-09T06:54:27;20.50;99.90
5494;DHT22;2769;49.864;8.656;2022-09-09T06:56:55;20.60;99.90
5494;DHT22;2769;49.864;8.656;2022-09-09T06:59:23;20.80;99.90
5494;DHT22;2769;49.864;8.656;2022-09-09T07:01:51;20.70;99.90
5494;DHT22;2769;49.864;8.656;2022-09-09T07:04:22;20.80;99.90
5494;DHT22;2769;49.864;8.656;2022-09-09T07:06:51;21.00;99.90
5494;DHT22;2769;49.864;8.656;2022-09-09T07:09:21;21.00;99.90
5494;DHT22;2769;49.864;8.656;2022-09-09T07:11:51;21.10;99.90
5494;DHT22;2769;49.864;8.656;2022-09-09T07:14:20;21.00;99.90
5494;DHT22;2769;49.864;8.656;2022-09-09T07:16:49;20.90;99.90
5494;DHT22;2769;49.864;8.656;2022-09-09T07:19:17;21.10;99.90
5494;DHT22;2769;49.864;8.656;2022-09-09T07:21:45;21.00;99.90
5494;DHT22;2769;49.864;8.656;2022-09-09T07:24:13;20.80;99.90
5494;DHT22;2769;49.864;8.656;2022-09-09T07:26:43;20.90;99.90
5494;DHT22;2769;49.864;8.656;2022-09-09T07:29:12;21.10;99.90
5494;DHT22;2769;49.864;8.656;2022-09-09T07:31:46;20.80;99.90
5494;DHT22;2769;49.864;8.656;2022-09-09T07:34:14;21.00;99.90
5494;DHT22;2769;49.864;8.656;2022-09-09T07:36:42;20.90;99.90
5494;DHT22;2769;49.864;8.656;2022-09-09T07:39:12;20.80;99.90
5494;DHT22;2769;49.864;8.656;2022-09-09T07:41:43;20.90;99.90
5494;DHT22;2769;49.864;8.656;2022-09-09T07:44:13;21.10;99.90
5494;DHT22;2769;49.864;8.656;2022-09-09T07:46:42;20.80;99.90
5494;DHT22;2769;49.864;8.656;2022-09-09T07:49:12;20.90;99.90
5494;DHT22;2769;49.864;8.656;2022-09-09T07:51:42;21.10;99.90
5494;DHT22;2769;49.864;8.656;2022-09-09T07:54:12;21.20;99.90
5494;DHT22;2769;49.864;8.656;2022-09-09T07:56:41;21.60;99.90
5494;DHT22;2769;49.864;8.656;2022-09-09T07:59:10;21.40;99.90
5494;DHT22;2769;49.864;8.656;2022-09-09T08:01:40;21.40;99.90
5494;DHT22;2769;49.864;8.656;2022-09-09T08:04:11;21.50;99.90
5494;DHT22;2769;49.864;8.656;2022-09-09T08:06:46;21.60;99.90
5494;DHT22;2769;49.864;8.656;2022-09-09T08:09:15;21.60;99.90
5494;DHT22;2769;49.864;8.656;2022-09-09T08:11:43;21.40;99.90
5494;DHT22;2769;49.864;8.656;2022-09-09T08:14:13;21.50;99.90
5494;DHT22;2769;49.864;8.656;2022-09-09T08:16:44;21.60;99.90
5494;DHT22;2769;49.864;8.656;2022-09-09T08:19:12;21.90;99.90
5494;DHT22;2769;49.864;8.656;2022-09-09T08:21:43;21.90;99.90
5494;DHT22;2769;49.864;8.656;2022-09-09T08:24:12;21.70;99.90
5494;DHT22;2769;49.864;8.656;2022-09-09T08:26:43;21.60;99.90
5494;DHT22;2769;49.864;8.656;2022-09-09T08:29:13;21.70;99.90
5494;DHT22;2769;49.864;8.656;2022-09-09T08:31:43;21.60;99.90
5494;DHT22;2769;49.864;8.656;2022-09-09T08:34:12;21.70;99.90
5494;DHT22;2769;49.864;8.656;2022-09-09T08:36:42;21.80;99.90
5494;DHT22;2769;49.864;8.656;2022-09-09T08:39:12;22.00;99.90
5494;DHT22;2769;49.864;8.656;2022-09-09T08:41:56;21.80;99.90
5494;DHT22;2769;49.864;8.656;2022-09-09T08:44:40;21.90;99.90
5494;DHT22;2769;49.864;8.656;2022-09-09T08:47:19;21.80;99.90
5494;DHT22;2769;49.864;8.656;2022-09-09T08:50:15;21.60;99.90
5494;DHT22;2769;49.864;8.656;2022-09-09T08:52:53;21.80;99.90
5494;DHT22;2769;49.864;8.656;2022-09-09T08:55:32;21.90;99.90
5494;DHT22;2769;49.864;8.656;2022-09-09T08:58:09;21.60;99.90
5494;DHT22;2769;49.864;8.656;2022-09-09T09:00:45;21.80;99.90
5494;DHT22;2769;49.864;8.656;2022-09-09T09:03:21;21.90;99.90
5494;DHT22;2769;49.864;8.656;2022-09-09T09:05:56;21.90;99.90
5494;DHT22;2769;49.864;8.656;2022-09-09T09:08:33;22.00;99.90
5494;DHT22;2769;49.864;8.656;2022-09-09T09:11:04;21.90;99.90
5494;DHT22;2769;49.864;8.656;2022-09-09T09:13:38;21.70;99.90
5494;DHT22;2769;49.864;8.656;2022-09-09T09:16:18;21.40;99.90
5494;DHT22;2769;49.864;8.656;2022-09-09T09:18:47;21.40;99.90
5494;DHT22;2769;49.864;8.656;2022-09-09T09:21:19;21.40;99.90
5494;DHT22;2769;49.864;8.656;2022-09-09T09:23:55;21.60;99.90
5494;DHT22;2769;49.864;8.656;2022-09-09T09:26:27;22.30;99.90
5494;DHT22;2769;49.864;8.656;2022-09-09T09:28:58;23.10;99.90
5494;DHT22;2769;49.864;8.656;2022-09-09T09:31:28;23.20;99.90
5494;DHT22;2769;49.864;8.656;2022-09-09T09:33:56;23.50;99.90
5494;DHT22;2769;49.864;8.656;2022-09-09T09:36:34;23.30;99.90
5494;DHT22;2769;49.864;8.656;2022-09-09T09:39:03;22.70;99.90
5494;DHT22;2769;49.864;8.656;2022-09-09T09:41:52;22.70;99.90
5494;DHT22;2769;49.864;8.656;2022-09-09T09:44:25;22.70;99.90
5494;DHT22;2769;49.864;8.656;2022-09-09T09:47:06;22.90;99.90
5494;DHT22;2769;49.864;8.656;2022-09-09T09:49:34;22.80;99.90
5494;DHT22;2769;49.864;8.656;2022-09-09T09:52:04;22.70;99.90
5494;DHT22;2769;49.864;8.656;2022-09-09T09:54:33;23.10;99.90
5494;DHT22;2769;49.864;8.656;2022-09-09T09:57:09;23.30;99.90
5494;DHT22;2769;49.864;8.656;2022-09-09T09:59:37;23.70;99.90
5494;DHT22;2769;49.864;8.656;2022-09-09T10:02:17;24.40;99.90
5494;DHT22;2769;49.864;8.656;2022-09-09T10:04:46;24.70;99.90
5494;DHT22;2769;49.864;8.656;2022-09-09T10:07:19;24.50;99.90
5494;DHT22;2769;49.864;8.656;2022-09-09T10:09:53;23.50;99.90
5494;DHT22;2769;49.864;8.656;2022-09-09T10:12:30;23.20;99.90
5494;DHT22;2769;49.864;8.656;2022-09-09T10:15:15;23.20;99.90
5494;DHT22;2769;49.864;8.656;2022-09-09T10:17:54;23.50;99.90
5494;DHT22;2769;49.864;8.656;2022-09-09T10:20:32;23.70;99.90
5494;DHT22;2769;49.864;8.656;2022-09-09T10:23:11;23.50;99.90
5494;DHT22;2769;49.864;8.656;2022-09-09T10:25:54;23.40;99.90
5494;DHT22;2769;49.864;8.656;2022-09-09T10:28:52;23.60;99.90
5494;DHT22;2769;49.864;8.656;2022-09-09T10:31:27;23.50;99.90
5494;DHT22;2769;49.864;8.656;2022-09-09T10:34:04;23.30;99.90
5494;DHT22;2769;49.864;8.656;2022-09-09T10:36:40;23.30;99.90
5494;DHT22;2769;49.864;8.656;2022-09-09T10:39:23;22.80;99.90
5494;DHT22;2769;49.864;8.656;2022-09-09T10:41:58;22.80;99.90
5494;DHT22;2769;49.864;8.656;2022-09-09T10:44:41;22.50;99.90
5494;DHT22;2769;49.864;8.656;2022-09-09T10:50:35;22.60;99.90
5494;DHT22;2769;49.864;8.656;2022-09-09T10:53:40;22.50;99.90
5494;DHT22;2769;49.864;8.656;2022-09-09T10:56:16;22.40;99.90
5494;DHT22;2769;49.864;8.656;2022-09-09T10:58:49;22.00;99.90
5494;DHT22;2769;49.864;8.656;2022-09-09T11:01:22;22.10;99.90
5494;DHT22;2769;49.864;8.656;2022-09-09T11:03:55;21.90;99.90
5494;DHT22;2769;49.864;8.656;2022-09-09T11:06:30;21.50;99.90
5494;DHT22;2769;49.864;8.656;2022-09-09T11:09:01;21.60;99.90
5494;DHT22;2769;49.864;8.656;2022-09-09T11:11:36;21.40;99.90
5494;DHT22;2769;49.864;8.656;2022-09-09T11:14:13;21.40;99.90
5494;DHT22;2769;49.864;8.656;2022-09-09T11:16:48;21.20;99.90
5494;DHT22;2769;49.864;8.656;2022-09-09T11:19:23;21.20;99.90
5494;DHT22;2769;49.864;8.656;2022-09-09T11:21:55;21.40;99.90
5494;DHT22;2769;49.864;8.656;2022-09-09T11:24:29;21.70;99.90
5494;DHT22;2769;49.864;8.656;2022-09-09T11:27:02;22.00;99.90
5494;DHT22;2769;49.864;8.656;2022-09-09T11:30:18;22.10;99.90
5494;DHT22;2769;49.864;8.656;2022-09-09T11:33:42;22.50;99.90
5494;DHT22;2769;49.864;8.656;2022-09-09T11:39:44;22.40;99.90
5494;DHT22;2769;49.864;8.656;2022-09-09T11:42:21;21.80;99.90
5494;DHT22;2769;49.864;8.656;2022-09-09T11:44:50;21.90;99.90
5494;DHT22;2769;49.864;8.656;2022-09-09T11:47:22;21.70;99.90
5494;DHT22;2769;49.864;8.656;2022-09-09T11:49:51;21.70;99.90
5494;DHT22;2769;49.864;8.656;2022-09-09T11:52:24;21.80;99.90
5494;DHT22;2769;49.864;8.656;2022-09-09T11:54:55;22.00;99.90
5494;DHT22;2769;49.864;8.656;2022-09-09T11:57:34;22.20;99.90
5494;DHT22;2769;49.864;8.656;2022-09-09T12:00:04;22.60;99.90
5494;DHT22;2769;49.864;8.656;2022-09-09T12:02:33;22.80;99.90
5494;DHT22;2769;49.864;8.656;2022-09-09T12:05:07;22.40;99.90
5494;DHT22;2769;49.864;8.656;2022-09-09T12:07:38;22.50;99.90
5494;DHT22;2769;49.864;8.656;2022-09-09T12:10:23;22.30;99.90
5494;DHT22;2769;49.864;8.656;2022-09-09T12:12:53;22.30;99.90
5494;DHT22;2769;49.864;8.656;2022-09-09T12:15:27;22.60;99.90
5494;DHT22;2769;49.864;8.656;2022-09-09T12:17:57;23.00;99.90
5494;DHT22;2769;49.864;8.656;2022-09-09T12:20:34;23.20;99.90
5494;DHT22;2769;49.864;8.656;2022-09-09T12:23:18;23.50;99.90
5494;DHT22;2769;49.864;8.656;2022-09-09T12:26:20;23.40;99.90
5494;DHT22;2769;49.864;8.656;2022-09-09T12:28:56;23.10;99.90
5494;DHT22;2769;49.864;8.656;2022-09-09T12:31:31;23.00;99.90
5494;DHT22;2769;49.864;8.656;2022-09-09T12:34:14;22.70;99.90
5494;DHT22;2769;49.864;8.656;2022-09-09T12:36:44;22.60;99.90
5494;DHT22;2769;49.864;8.656;2022-09-09T12:39:31;22.50;99.90
5494;DHT22;2769;49.864;8.656;2022-09-09T12:42:02;22.50;99.90
5494;DHT22;2769;49.864;8.656;2022-09-09T12:44:31;22.40;99.90
5494;DHT22;2769;49.864;8.656;2022-09-09T12:47:02;22.70;99.90
5494;DHT22;2769;49.864;8.656;2022-09-09T12:49:34;22.10;99.90
5494;DHT22;2769;49.864;8.656;2022-09-09T12:52:05;21.70;99.90
5494;DHT22;2769;49.864;8.656;2022-09-09T12:54:35;21.60;99.90
5494;DHT22;2769;49.864;8.656;2022-09-09T12:57:09;21.70;99.90
5494;DHT22;2769;49.864;8.656;2022-09-09T12:59:43;21.70;99.90
5494;DHT22;2769;49.864;8.656;2022-09-09T13:02:22;21.80;99.90
5494;DHT22;2769;49.864;8.656;2022-09-09T13:04:50;21.90;99.90
5494;DHT22;2769;49.864;8.656;2022-09-09T13:07:20;21.70;99.90
5494;DHT22;2769;49.864;8.656;2022-09-09T13:09:49;22.00;99.90
5494;DHT22;2769;49.864;8.656;2022-09-09T13:12:21;21.90;99.90
5494;DHT22;2769;49.864;8.656;2022-09-09T13:14:51;21.60;99.90
5494;DHT22;2769;49.864;8.656;2022-09-09T13:17:21;21.60;99.90
5494;DHT22;2769;49.864;8.656;2022-09-09T13:19:51;21.40;99.90
5494;DHT22;2769;49.864;8.656;2022-09-09T13:22:23;21.60;99.90
5494;DHT22;2769;49.864;8.656;2022-09-09T13:25:04;21.40;99.90
5494;DHT22;2769;49.864;8.656;2022-09-09T13:27:36;21.40;99.90
5494;DHT22;2769;49.864;8.656;2022-09-09T13:30:22;20.80;99.90
5494;DHT22;2769;49.864;8.656;2022-09-09T13:33:05;20.60;99.90
5494;DHT22;2769;49.864;8.656;2022-09-09T13:35:34;20.80;99.90
5494;DHT22;2769;49.864;8.656;2022-09-09T13:38:09;20.60;99.90
5494;DHT22;2769;49.864;8.656;2022-09-09T13:40:37;20.70;99.90
5494;DHT22;2769;49.864;8.656;2022-09-09T13:43:14;20.60;99.90
5494;DHT22;2769;49.864;8.656;2022-09-09T13:45:53;20.30;99.90
5494;DHT22;2769;49.864;8.656;2022-09-09T13:48:23;20.40;99.90
5494;DHT22;2769;49.864;8.656;2022-09-09T13:51:00;20.20;99.90
5494;DHT22;2769;49.864;8.656;2022-09-09T13:53:28;20.60;99.90
5494;DHT22;2769;49.864;8.656;2022-09-09T13:55:57;20.50;99.90
5494;DHT22;2769;49.864;8.656;2022-09-09T13:58:27;20.90;99.90
5494;DHT22;2769;49.864;8.656;2022-09-09T14:00:55;21.20;99.90
5494;DHT22;2769;49.864;8.656;2022-09-09T14:03:24;21.30;99.90
5494;DHT22;2769;49.864;8.656;2022-09-09T14:05:52;21.80;99.90
5494;DHT22;2769;49.864;8.656;2022-09-09T14:08:24;21.70;99.90
5494;DHT22;2769;49.864;8.656;2022-09-09T14:10:52;22.60;99.90
5494;DHT22;2769;49.864;8.656;2022-09-09T14:13:26;23.60;99.90
5494;DHT22;2769;49.864;8.656;2022-09-09T14:15:54;25.30;99.90
5494;DHT22;2769;49.864;8.656;2022-09-09T14:18:23;25.80;99.90
5494;DHT22;2769;49.864;8.656;2022-09-09T14:20:53;27.00;99.90
5494;DHT22;2769;49.864;8.656;2022-09-09T14:23:21;26.50;99.90
5494;DHT22;2769;49.864;8.656;2022-09-09T14:25:51;26.50;99.90
5494;DHT22;2769;49.864;8.656;2022-09-09T14:28:20;26.20;99.90
5494;DHT22;2769;49.864;8.656;2022-09-09T14:31:09;25.60;99.90
5494;DHT22;2769;49.864;8.656;2022-09-09T14:33:37;24.80;99.90
5494;DHT22;2769;49.864;8.656;2022-09-09T14:36:05;24.70;99.90
5494;DHT22;2769;49.864;8.656;2022-09-09T14:38:35;24.70;99.90
5494;DHT22;2769;49.864;8.656;2022-09-09T14:41:06;24.70;99.90
5494;DHT22;2769;49.864;8.656;2022-09-09T14:43:34;24.60;99.90
5494;DHT22;2769;49.864;8.656;2022-09-09T14:46:06;24.40;99.90
5494;DHT22;2769;49.864;8.656;2022-09-09T14:48:36;23.70;99.90
5494;DHT22;2769;49.864;8.656;2022-09-09T14:51:07;23.60;99.90
5494;DHT22;2769;49.864;8.656;2022-09-09T14:53:36;23.60;99.90
5494;DHT22;2769;49.864;8.656;2022-09-09T14:56:06;23.80;99.90
5494;DHT22;2769;49.864;8.656;2022-09-09T14:58:35;23.40;99.90
5494;DHT22;2769;49.864;8.656;2022-09-09T15:01:06;23.50;99.90
5494;DHT22;2769;49.864;8.656;2022-09-09T15:03:35;23.60;99.90
5494;DHT22;2769;49.864;8.656;2022-09-09T15:06:08;23.50;99.90
5494;DHT22;2769;49.864;8.656;2022-09-09T15:08:37;23.40;99.90
5494;DHT22;2769;49.864;8.656;2022-09-09T15:11:10;23.20;99.90
5494;DHT22;2769;49.864;8.656;2022-09-09T15:13:40;22.80;99.90
5494;DHT22;2769;49.864;8.656;2022-09-09T15:16:11;22.30;99.90
5494;DHT22;2769;49.864;8.656;2022-09-09T15:18:42;21.90;99.90
5494;DHT22;2769;49.864;8.656;2022-09-09T15:21:11;22.00;99.90
5494;DHT22;2769;49.864;8.656;2022-09-09T15:23:40;22.20;99.90
5494;DHT22;2769;49.864;8.656;2022-09-09T15:26:09;22.30;99.90
5494;DHT22;2769;49.864;8.656;2022-09-09T15:28:38;22.20;99.90
5494;DHT22;2769;49.864;8.656;2022-09-09T15:31:08;22.20;99.90
5494;DHT22;2769;49.864;8.656;2022-09-09T15:33:37;22.40;99.90
5494;DHT22;2769;49.864;8.656;2022-09-09T15:36:18;22.40;99.90
5494;DHT22;2769;49.864;8.656;2022-09-09T15:38:46;23.20;99.90
5494;DHT22;2769;49.864;8.656;2022-09-09T15:41:15;22.80;99.90
5494;DHT22;2769;49.864;8.656;2022-09-09T15:43:44;23.00;99.90
5494;DHT22;2769;49.864;8.656;2022-09-09T15:46:28;23.10;99.90
5494;DHT22;2769;49.864;8.656;2022-09-09T15:48:58;23.20;99.90
5494;DHT22;2769;49.864;8.656;2022-09-09T15:51:27;23.30;99.90
5494;DHT22;2769;49.864;8.656;2022-09-09T15:54:09;22.90;99.90
5494;DHT22;2769;49.864;8.656;2022-09-09T15:56:37;22.70;99.90
5494;DHT22;2769;49.864;8.656;2022-09-09T15:59:05;22.90;99.90
5494;DHT22;2769;49.864;8.656;2022-09-09T16:01:34;22.90;99.90
5494;DHT22;2769;49.864;8.656;2022-09-09T16:04:02;22.30;99.90
5494;DHT22;2769;49.864;8.656;2022-09-09T16:06:32;22.20;99.90
5494;DHT22;2769;49.864;8.656;2022-09-09T16:09:03;22.30;99.90
5494;DHT22;2769;49.864;8.656;2022-09-09T16:11:33;22.60;99.90
5494;DHT22;2769;49.864;8.656;2022-09-09T16:14:03;22.40;99.90
5494;DHT22;2769;49.864;8.656;2022-09-09T16:16:32;22.20;99.90
5494;DHT22;2769;49.864;8.656;2022-09-09T16:19:04;22.20;99.90
5494;DHT22;2769;49.864;8.656;2022-09-09T16:21:36;22.30;99.90
5494;DHT22;2769;49.864;8.656;2022-09-09T16:24:05;22.10;99.90
5494;DHT22;2769;49.864;8.656;2022-09-09T16:26:36;22.20;99.90
5494;DHT22;2769;49.864;8.656;2022-09-09T16:29:05;22.30;99.90
5494;DHT22;2769;49.864;8.656;2022-09-09T16:31:33;22.10;99.90
5494;DHT22;2769;49.864;8.656;2022-09-09T16:34:01;22.20;99.90
5494;DHT22;2769;49.864;8.656;2022-09-09T16:36:32;21.90;99.90
5494;DHT22;2769;49.864;8.656;2022-09-09T16:39:05;21.90;99.90
5494;DHT22;2769;49.864;8.656;2022-09-09T16:41:33;21.90;99.90